createdAt,value
2022-08-17T00:00:34.398Z,22.47
2022-08-17T00:03:06.416Z,22.43
2022-08-17T00:05:42.655Z,22.41
2022-08-17T00:08:12.642Z,22.38
2022-08-17T00:10:42.256Z,22.36
2022-08-17T00:13:18.939Z,22.32
2022-08-17T00:15:47.053Z,22.30
2022-08-17T00:18:57.524Z,22.27
2022-08-17T00:21:10.597Z,22.25
2022-08-17T00:23:47.687Z,22.22
2022-08-17T00:26:34.891Z,22.20
2022-08-17T00:29:07.214Z,22.19
2022-08-17T00:31:36.170Z,22.17
2022-08-17T00:34:06.269Z,22.15
2022-08-17T00:36:33.914Z,22.10
2022-08-17T00:39:01.423Z,22.04
2022-08-17T00:41:29.526Z,22.01
2022-08-17T00:44:03.523Z,22.01
2022-08-17T00:46:35.812Z,22.01
2022-08-17T00:49:05.935Z,22.00
2022-08-17T00:51:51.915Z,21.98
2022-08-17T00:54:30.458Z,21.94
2022-08-17T00:57:05.515Z,21.93
2022-08-17T00:59:39.107Z,21.91
2022-08-17T01:02:09.496Z,21.90
2022-08-17T01:04:38.713Z,21.89
2022-08-17T01:07:07.597Z,21.87
2022-08-17T01:09:35.194Z,21.85
2022-08-17T01:12:06.500Z,21.82
2022-08-17T01:14:36.713Z,21.77
2022-08-17T01:17:04.862Z,21.73
2022-08-17T01:19:36.048Z,21.70
2022-08-17T01:22:12.199Z,21.67
2022-08-17T01:24:43.445Z,21.65
2022-08-17T01:27:13.690Z,21.63
2022-08-17T01:29:46.875Z,21.59
2022-08-17T01:32:14.905Z,21.53
2022-08-17T01:34:46.781Z,21.46
2022-08-17T01:37:27.570Z,21.36
2022-08-17T01:40:03.273Z,21.29
2022-08-17T01:42:36.599Z,21.20
2022-08-17T01:45:18.742Z,21.17
2022-08-17T01:47:46.366Z,21.16
2022-08-17T01:50:19.116Z,21.15
2022-08-17T01:52:50.593Z,21.15
2022-08-17T01:55:27.222Z,21.16
2022-08-17T01:57:55.113Z,21.17
2022-08-17T02:00:22.672Z,21.18
2022-08-17T02:02:50.396Z,21.18
2022-08-17T02:05:19.114Z,21.17
2022-08-17T02:08:00.597Z,21.17
2022-08-17T02:10:34.219Z,21.16
2022-08-17T02:13:04.392Z,21.14
2022-08-17T02:15:32.139Z,21.12
2022-08-17T02:17:59.567Z,21.09
2022-08-17T02:20:41.822Z,21.08
2022-08-17T02:23:12.459Z,21.06
2022-08-17T02:25:43.513Z,21.04
2022-08-17T02:28:11.256Z,21.03
2022-08-17T02:31:02.028Z,21.01
2022-08-17T02:33:41.821Z,21.00
2022-08-17T02:36:13.042Z,21.01
2022-08-17T02:38:42.158Z,21.02
2022-08-17T02:41:09.810Z,21.01
2022-08-17T02:43:37.430Z,21.01
2022-08-17T02:46:04.882Z,21.01
2022-08-17T02:48:32.359Z,20.99
2022-08-17T02:51:00.891Z,20.98
2022-08-17T02:53:33.678Z,20.97
2022-08-17T02:56:04.218Z,20.96
2022-08-17T02:58:35.510Z,20.94
2022-08-17T03:01:07.285Z,20.94
2022-08-17T03:03:36.499Z,20.92
2022-08-17T03:06:05.649Z,20.89
2022-08-17T03:08:34.230Z,20.86
2022-08-17T03:11:01.683Z,20.82
2022-08-17T03:13:30.855Z,20.79
2022-08-17T03:15:58.982Z,20.75
2022-08-17T03:18:27.989Z,20.71
2022-08-17T03:20:59.619Z,20.70
2022-08-17T03:23:29.695Z,20.70
2022-08-17T03:25:59.677Z,20.68
2022-08-17T03:28:28.276Z,20.66
2022-08-17T03:30:55.716Z,20.65
2022-08-17T03:33:23.266Z,20.65
2022-08-17T03:35:51.737Z,20.67
2022-08-17T03:38:19.823Z,20.67
2022-08-17T03:40:57.313Z,20.68
2022-08-17T03:43:31.018Z,20.69
2022-08-17T03:46:28.310Z,20.67
2022-08-17T03:49:21.975Z,20.63
2022-08-17T03:52:05.674Z,20.62
2022-08-17T03:54:49.272Z,20.62
2022-08-17T03:57:16.758Z,20.64
2022-08-17T03:59:45.102Z,20.64
2022-08-17T04:02:25.678Z,20.66
2022-08-17T04:04:54.085Z,20.66
2022-08-17T04:07:26.158Z,20.68
2022-08-17T04:09:53.826Z,20.71
2022-08-17T04:12:23.601Z,20.74
2022-08-17T04:14:53.783Z,20.79
2022-08-17T04:17:24.887Z,20.83
2022-08-17T04:19:53.711Z,20.87
2022-08-17T04:22:32.572Z,20.90
2022-08-17T04:25:06.701Z,20.92
2022-08-17T04:27:34.340Z,20.93
2022-08-17T04:30:03.653Z,20.97
2022-08-17T04:33:00.649Z,21.02
2022-08-17T04:35:25.496Z,21.08
2022-08-17T04:37:53.594Z,21.14
2022-08-17T04:40:39.506Z,21.20
2022-08-17T04:43:13.841Z,21.27
2022-08-17T04:45:55.058Z,21.32
2022-08-17T04:48:34.710Z,21.39
2022-08-17T04:51:16.177Z,21.43
2022-08-17T04:53:46.501Z,21.52
2022-08-17T04:56:25.052Z,21.60
2022-08-17T04:58:55.081Z,21.69
2022-08-17T05:01:25.541Z,21.77
2022-08-17T05:03:56.009Z,21.86
2022-08-17T05:06:23.623Z,21.92
2022-08-17T05:08:51.266Z,21.98
2022-08-17T05:11:19.146Z,22.05
2022-08-17T05:13:49.995Z,22.13
2022-08-17T05:16:18.867Z,22.23
2022-08-17T05:18:46.790Z,22.33
2022-08-17T05:21:15.627Z,22.44
2022-08-17T05:23:43.861Z,22.55
2022-08-17T05:26:25.461Z,22.63
2022-08-17T05:29:00.409Z,22.71
2022-08-17T05:31:29.783Z,22.79
2022-08-17T05:33:57.425Z,22.86
2022-08-17T05:36:42.603Z,22.95
2022-08-17T05:39:16.135Z,23.06
2022-08-17T05:41:48.094Z,23.17
2022-08-17T05:44:16.392Z,23.28
2022-08-17T05:46:49.394Z,23.40
2022-08-17T05:49:24.782Z,23.50
2022-08-17T05:52:02.939Z,23.60
2022-08-17T05:54:47.393Z,23.70
2022-08-17T05:57:53.796Z,23.81
2022-08-17T06:00:36.702Z,23.93
2022-08-17T06:03:28.872Z,24.04
2022-08-17T06:06:31.392Z,24.16
2022-08-17T06:09:11.485Z,24.29
2022-08-17T06:11:43.570Z,24.41
2022-08-17T06:14:23.150Z,24.47
2022-08-17T06:16:58.439Z,24.55
2022-08-17T06:19:41.880Z,24.64
2022-08-17T06:22:13.476Z,24.71
2022-08-17T06:24:51.238Z,24.81
2022-08-17T06:27:40.860Z,24.91
2022-08-17T06:30:58.579Z,25.02
2022-08-17T06:33:26.110Z,25.16
2022-08-17T06:36:22.228Z,25.27
2022-08-17T06:39:24.092Z,25.38
2022-08-17T06:41:54.201Z,25.46
2022-08-17T06:44:47.100Z,25.54
2022-08-17T06:47:36.294Z,25.61
2022-08-17T06:50:20.394Z,25.68
2022-08-17T06:53:20.466Z,25.77
2022-08-17T06:56:02.090Z,25.83
2022-08-17T06:58:31.368Z,25.87
2022-08-17T07:01:25.005Z,25.92
2022-08-17T07:04:06.768Z,26.02
2022-08-17T07:06:47.611Z,26.09
2022-08-17T07:09:24.875Z,26.19
2022-08-17T07:11:58.886Z,26.27
2022-08-17T07:14:48.244Z,26.35
2022-08-17T07:17:18.369Z,26.44
2022-08-17T07:19:49.600Z,26.51
2022-08-17T07:22:59.586Z,26.59
2022-08-17T07:25:30.568Z,26.68
2022-08-17T07:28:02.327Z,26.73
2022-08-17T07:30:46.772Z,26.79
2022-08-17T07:33:19.821Z,26.86
2022-08-17T07:35:49.928Z,26.93
2022-08-17T07:38:26.880Z,27.00
2022-08-17T07:41:09.572Z,27.09
2022-08-17T07:43:39.841Z,27.18
2022-08-17T07:46:44.925Z,27.27
2022-08-17T07:49:15.043Z,27.36
2022-08-17T07:51:42.445Z,27.44
2022-08-17T07:54:15.697Z,27.53
2022-08-17T07:57:00.264Z,27.63
2022-08-17T07:59:34.016Z,27.74
2022-08-17T08:02:28.960Z,27.86
2022-08-17T08:05:30.682Z,27.98
2022-08-17T08:08:35.380Z,28.10
2022-08-17T08:11:15.354Z,28.21
2022-08-17T08:13:45.530Z,28.31
2022-08-17T08:16:30.286Z,28.38
2022-08-17T08:19:02.027Z,28.47
2022-08-17T08:21:58.921Z,28.57
2022-08-17T08:24:58.243Z,28.70
2022-08-17T08:27:50.711Z,28.83
2022-08-17T08:30:23.818Z,28.98
2022-08-17T08:33:00.587Z,29.09
2022-08-17T08:35:33.630Z,29.16
2022-08-17T08:38:29.213Z,29.30
2022-08-17T08:41:21.371Z,29.47
2022-08-17T08:44:09.882Z,29.64
2022-08-17T08:47:21.444Z,29.77
2022-08-17T08:50:34.129Z,29.95
2022-08-17T08:53:19.050Z,30.06
2022-08-17T08:56:19.235Z,30.21
2022-08-17T08:58:53.695Z,30.32
2022-08-17T09:01:30.140Z,30.28
2022-08-17T09:04:24.834Z,30.17
2022-08-17T09:07:08.834Z,30.12
2022-08-17T09:10:09.440Z,30.05
2022-08-17T09:12:55.211Z,29.92
2022-08-17T09:15:33.435Z,29.91
2022-08-17T09:19:03.171Z,30.07
2022-08-17T09:21:38.169Z,30.38
2022-08-17T09:24:29.698Z,30.74
2022-08-17T09:27:15.249Z,31.09
2022-08-17T09:29:51.525Z,31.38
2022-08-17T09:32:31.286Z,31.46
2022-08-17T09:35:04.263Z,31.68
2022-08-17T09:37:59.137Z,31.93
2022-08-17T09:40:34.208Z,32.28
2022-08-17T09:43:12.536Z,32.57
2022-08-17T09:46:02.488Z,32.89
2022-08-17T09:48:41.738Z,33.21
2022-08-17T09:51:14.784Z,33.54
2022-08-17T09:53:44.680Z,33.83
2022-08-17T09:56:42.308Z,34.06
2022-08-17T09:59:21.826Z,34.38
2022-08-17T10:02:28.408Z,34.67
2022-08-17T10:05:37.751Z,34.96
2022-08-17T10:08:16.958Z,35.26
2022-08-17T10:11:22.125Z,35.53
2022-08-17T10:14:38.048Z,35.87
2022-08-17T10:17:39.446Z,36.23
2022-08-17T10:20:35.526Z,36.44
2022-08-17T10:23:24.479Z,36.23
2022-08-17T10:26:15.445Z,35.81
2022-08-17T10:29:01.724Z,35.42
2022-08-17T10:31:35.876Z,35.06
2022-08-17T10:34:19.922Z,34.78
2022-08-17T10:37:06.815Z,34.47
2022-08-17T10:39:58.102Z,34.25
2022-08-17T10:42:35.239Z,34.07
2022-08-17T10:45:29.861Z,33.99
2022-08-17T10:48:13.790Z,34.28
2022-08-17T10:50:57.559Z,34.68
2022-08-17T10:53:31.079Z,35.16
2022-08-17T10:56:14.550Z,35.59
2022-08-17T10:58:54.630Z,36.03
2022-08-17T11:01:38.166Z,36.37
2022-08-17T11:04:25.207Z,36.68
2022-08-17T11:07:02.176Z,36.88
2022-08-17T11:10:01.641Z,37.14
2022-08-17T11:12:32.811Z,37.54
2022-08-17T11:15:13.197Z,37.70
2022-08-17T11:18:01.677Z,37.50
2022-08-17T11:20:47.932Z,37.24
2022-08-17T11:23:21.625Z,36.88
2022-08-17T11:25:54.351Z,36.51
2022-08-17T11:28:34.259Z,36.12
2022-08-17T11:31:05.653Z,35.64
2022-08-17T11:33:36.666Z,35.23
2022-08-17T11:36:32.736Z,34.92
2022-08-17T11:39:22.044Z,34.95
2022-08-17T11:41:54.933Z,35.40
2022-08-17T11:44:56.435Z,35.90
2022-08-17T11:51:27.901Z,37.10
2022-08-17T11:54:31.552Z,37.21
2022-08-17T11:56:54.110Z,37.43
2022-08-17T11:59:45.754Z,37.88
2022-08-17T12:02:31.646Z,38.42
2022-08-17T12:05:21.854Z,38.44
2022-08-17T12:07:58.545Z,38.11
2022-08-17T12:10:32.092Z,37.75
2022-08-17T12:13:07.333Z,37.32
2022-08-17T12:15:43.051Z,36.73
2022-08-17T12:18:19.551Z,36.07
2022-08-17T12:21:02.471Z,35.64
2022-08-17T12:23:41.555Z,35.40
2022-08-17T12:26:19.821Z,35.20
2022-08-17T12:28:52.745Z,35.15
2022-08-17T12:31:29.828Z,35.30
2022-08-17T12:33:57.993Z,35.51
2022-08-17T12:36:33.248Z,35.29
2022-08-17T12:39:13.878Z,34.97
2022-08-17T12:41:47.968Z,34.51
2022-08-17T12:44:24.058Z,34.10
2022-08-17T12:46:58.601Z,33.64
2022-08-17T12:49:32.233Z,33.14
2022-08-17T12:52:08.145Z,32.69
2022-08-17T12:54:59.476Z,32.22
2022-08-17T12:57:36.160Z,31.64
2022-08-17T13:00:18.370Z,31.20
2022-08-17T13:02:54.981Z,30.83
2022-08-17T13:05:28.340Z,30.52
2022-08-17T13:07:59.045Z,30.25
2022-08-17T13:10:33.043Z,29.93
2022-08-17T13:13:22.036Z,29.55
2022-08-17T13:15:58.392Z,29.14
2022-08-17T13:18:47.164Z,28.84
2022-08-17T13:21:23.628Z,28.70
2022-08-17T13:24:19.139Z,28.63
2022-08-17T13:26:50.083Z,28.55
2022-08-17T13:29:35.660Z,28.47
2022-08-17T13:32:07.923Z,28.44
2022-08-17T13:35:12.469Z,28.40
2022-08-17T13:37:37.448Z,28.39
2022-08-17T13:40:08.210Z,28.42
2022-08-17T13:42:51.620Z,28.51
2022-08-17T13:45:34.938Z,28.57
2022-08-17T13:48:23.083Z,28.55
2022-08-17T13:50:56.561Z,29.08
2022-08-17T13:53:37.250Z,30.06
2022-08-17T13:56:31.737Z,30.37
2022-08-17T13:59:16.659Z,30.44
2022-08-17T14:02:05.757Z,30.42
2022-08-17T14:04:33.856Z,30.34
2022-08-17T14:07:11.774Z,30.24
2022-08-17T14:09:57.741Z,30.14
2022-08-17T14:12:28.874Z,30.01
2022-08-17T14:14:59.373Z,29.88
2022-08-17T14:17:31.039Z,29.61
2022-08-17T14:20:01.342Z,29.26
2022-08-17T14:22:35.426Z,28.94
2022-08-17T14:25:05.281Z,28.67
2022-08-17T14:27:47.097Z,28.80
2022-08-17T14:30:25.798Z,29.06
2022-08-17T14:32:58.026Z,28.98
2022-08-17T14:35:28.106Z,28.87
2022-08-17T14:37:56.671Z,28.75
2022-08-17T14:40:25.296Z,28.63
2022-08-17T14:42:54.969Z,28.54
2022-08-17T14:45:29.871Z,28.47
2022-08-17T14:48:03.923Z,28.42
2022-08-17T14:50:35.417Z,28.37
2022-08-17T14:53:05.424Z,28.27
2022-08-17T14:55:34.471Z,28.13
2022-08-17T14:58:03.960Z,28.01
2022-08-17T15:00:33.016Z,27.89
2022-08-17T15:03:02.089Z,27.79
2022-08-17T15:05:34.386Z,27.74
2022-08-17T15:08:03.524Z,27.71
2022-08-17T15:10:31.699Z,27.72
2022-08-17T15:13:00.260Z,27.72
2022-08-17T15:15:28.569Z,27.73
2022-08-17T15:17:56.819Z,27.74
2022-08-17T15:20:29.543Z,27.74
2022-08-17T15:22:59.398Z,27.70
2022-08-17T15:25:31.648Z,27.64
2022-08-17T15:28:00.204Z,27.59
2022-08-17T15:30:29.159Z,27.55
2022-08-17T15:32:59.159Z,27.46
2022-08-17T15:35:32.457Z,27.40
2022-08-17T15:38:11.688Z,27.34
2022-08-17T15:40:42.880Z,27.29
2022-08-17T15:43:16.571Z,27.28
2022-08-17T15:45:44.731Z,27.31
2022-08-17T15:48:47.340Z,27.39
2022-08-17T15:51:19.057Z,27.49
2022-08-17T15:53:57.479Z,27.56
2022-08-17T15:56:26.464Z,27.66
2022-08-17T15:58:55.112Z,27.94
2022-08-17T16:02:14.269Z,28.60
2022-08-17T16:04:14.056Z,28.90
2022-08-17T16:06:57.243Z,29.01
2022-08-17T16:09:24.843Z,29.08
2022-08-17T16:11:55.183Z,29.09
2022-08-17T16:14:33.988Z,29.10
2022-08-17T16:17:04.442Z,29.08
2022-08-17T16:19:34.281Z,29.04
2022-08-17T16:22:03.734Z,28.99
2022-08-17T16:24:31.777Z,28.92
2022-08-17T16:26:59.374Z,28.86
2022-08-17T16:29:27.472Z,28.80
2022-08-17T16:31:55.767Z,28.73
2022-08-17T16:34:23.844Z,28.68
2022-08-17T16:36:55.221Z,28.63
2022-08-17T16:39:29.401Z,28.57
2022-08-17T16:41:57.369Z,28.49
2022-08-17T16:44:29.133Z,28.42
2022-08-17T16:46:57.562Z,28.35
2022-08-17T16:49:36.953Z,28.27
2022-08-17T16:52:10.581Z,28.19
2022-08-17T16:54:43.647Z,28.10
2022-08-17T16:57:13.639Z,27.97
2022-08-17T16:59:43.922Z,27.87
2022-08-17T17:02:23.588Z,27.75
2022-08-17T17:05:07.948Z,27.64
2022-08-17T17:08:09.003Z,27.54
2022-08-17T17:10:44.832Z,27.44
2022-08-17T17:13:39.234Z,27.35
2022-08-17T17:16:18.184Z,27.28
2022-08-17T17:19:07.643Z,27.20
2022-08-17T17:21:57.241Z,27.10
2022-08-17T17:24:50.287Z,27.02
2022-08-17T17:27:37.013Z,26.96
2022-08-17T17:30:46.861Z,26.92
2022-08-17T17:33:40.315Z,26.87
2022-08-17T17:36:22.484Z,26.83
2022-08-17T17:38:54.037Z,26.77
2022-08-17T17:41:51.341Z,26.72
2022-08-17T17:44:35.185Z,26.66
2022-08-17T17:47:03.954Z,26.59
2022-08-17T17:49:40.060Z,26.55
2022-08-17T17:52:31.477Z,26.52
2022-08-17T17:55:04.697Z,26.47
2022-08-17T17:57:45.141Z,26.42
2022-08-17T18:00:19.270Z,26.36
2022-08-17T18:02:53.945Z,26.31
2022-08-17T18:05:49.390Z,26.28
2022-08-17T18:08:47.790Z,26.23
2022-08-17T18:11:39.880Z,26.18
2022-08-17T18:14:42.131Z,26.15
2022-08-17T18:17:10.591Z,26.11
2022-08-17T18:19:39.875Z,26.06
2022-08-17T18:22:14.238Z,26.01
2022-08-17T18:24:45.495Z,25.96
2022-08-17T18:27:45.049Z,25.90
2022-08-17T18:30:12.564Z,25.86
2022-08-17T18:32:43.455Z,25.81
2022-08-17T18:35:10.858Z,25.74
2022-08-17T18:37:42.828Z,25.67
2022-08-17T18:40:16.623Z,25.60
2022-08-17T18:42:55.707Z,25.53
2022-08-17T18:45:46.822Z,25.47
2022-08-17T18:48:17.661Z,25.40
2022-08-17T18:50:45.511Z,25.33
2022-08-17T18:53:45.337Z,25.28
2022-08-17T18:56:32.663Z,25.19
2022-08-17T18:59:04.218Z,25.12
2022-08-17T19:02:13.853Z,25.06
2022-08-17T19:05:10.473Z,24.97
2022-08-17T19:07:44.246Z,24.93
2022-08-17T19:10:31.120Z,24.88
2022-08-17T19:13:14.964Z,24.79
2022-08-17T19:16:12.299Z,24.70
2022-08-17T19:18:52.986Z,24.62
2022-08-17T19:21:40.273Z,24.57
2022-08-17T19:24:19.374Z,24.55
2022-08-17T19:26:56.550Z,24.53
2022-08-17T19:29:50.247Z,24.51
2022-08-17T19:32:24.359Z,24.50
2022-08-17T19:34:52.892Z,24.49
2022-08-17T19:37:27.418Z,24.49
2022-08-17T19:40:35.142Z,24.49
2022-08-17T19:43:40.518Z,24.51
2022-08-17T19:46:25.850Z,24.53
2022-08-17T19:49:16.084Z,24.55
2022-08-17T19:52:02.067Z,24.57
2022-08-17T19:55:04.564Z,24.60
2022-08-17T19:57:47.127Z,24.61
2022-08-17T20:00:17.578Z,24.60
2022-08-17T20:02:48.536Z,24.59
2022-08-17T20:05:24.384Z,24.58
2022-08-17T20:08:11.404Z,24.56
2022-08-17T20:10:48.045Z,24.53
2022-08-17T20:13:40.007Z,24.52
2022-08-17T20:16:09.972Z,24.50
2022-08-17T20:18:49.819Z,24.48
2022-08-17T20:21:33.356Z,24.44
2022-08-17T20:24:16.895Z,24.41
2022-08-17T20:26:58.369Z,24.38
2022-08-17T20:29:39.871Z,24.35
2022-08-17T20:32:18.695Z,24.32
2022-08-17T20:34:47.526Z,24.27
2022-08-17T20:37:15.139Z,24.23
2022-08-17T20:39:58.746Z,24.17
2022-08-17T20:42:27.919Z,24.13
2022-08-17T20:44:59.371Z,24.11
2022-08-17T20:48:18.560Z,24.10
2022-08-17T20:50:44.207Z,24.09
2022-08-17T20:53:32.510Z,24.07
2022-08-17T20:56:00.015Z,24.03
2022-08-17T20:58:30.674Z,24.00
2022-08-17T21:00:59.040Z,23.97
2022-08-17T21:03:26.842Z,23.92
2022-08-17T21:06:00.777Z,23.88
2022-08-17T21:08:53.301Z,23.84
2022-08-17T21:11:57.073Z,23.77
2022-08-17T21:14:46.115Z,23.69
2022-08-17T21:17:29.714Z,23.65
2022-08-17T21:20:10.769Z,23.61
2022-08-17T21:23:10.853Z,23.58
2022-08-17T21:25:54.387Z,23.54
2022-08-17T21:29:00.965Z,23.49
2022-08-17T21:31:40.089Z,23.45
2022-08-17T21:34:26.744Z,23.39
2022-08-17T21:36:56.712Z,23.33
2022-08-17T21:39:40.422Z,23.29
2022-08-17T21:42:09.097Z,23.26
2022-08-17T21:44:47.346Z,23.24
2022-08-17T21:47:31.239Z,23.21
2022-08-17T21:50:21.531Z,23.17
2022-08-17T21:52:54.046Z,23.12
2022-08-17T21:55:29.911Z,23.07
2022-08-17T21:58:14.164Z,23.02
2022-08-17T22:00:46.525Z,22.97
2022-08-17T22:03:31.248Z,22.94
2022-08-17T22:05:58.910Z,22.92
2022-08-17T22:08:26.524Z,22.89
2022-08-17T22:11:01.567Z,22.85
2022-08-17T22:13:29.646Z,22.81
2022-08-17T22:16:03.688Z,22.77
2022-08-17T22:18:45.184Z,22.72
2022-08-17T22:21:12.667Z,22.69
2022-08-17T22:23:59.754Z,22.64
2022-08-17T22:27:03.327Z,22.61
2022-08-17T22:29:54.366Z,22.59
2022-08-17T22:32:37.184Z,22.58
2022-08-17T22:35:26.758Z,22.57
2022-08-17T22:37:56.016Z,22.55
2022-08-17T22:40:28.948Z,22.52
2022-08-17T22:42:58.153Z,22.48
2022-08-17T22:45:29.906Z,22.46
2022-08-17T22:48:01.924Z,22.43
2022-08-17T22:50:33.010Z,22.40
2022-08-17T22:53:29.091Z,22.38
2022-08-17T22:56:13.694Z,22.36
2022-08-17T22:59:07.431Z,22.34
2022-08-17T23:01:35.498Z,22.31
2022-08-17T23:04:10.329Z,22.30
2022-08-17T23:06:43.769Z,22.29
2022-08-17T23:09:11.378Z,22.28
2022-08-17T23:11:48.795Z,22.28
2022-08-17T23:14:19.899Z,22.28
2022-08-17T23:16:50.042Z,22.27
2022-08-17T23:19:21.070Z,22.26
2022-08-17T23:21:53.799Z,22.24
2022-08-17T23:24:35.554Z,22.22
2022-08-17T23:27:07.767Z,22.19
2022-08-17T23:29:35.444Z,22.17
2022-08-17T23:32:06.013Z,22.15
2022-08-17T23:34:33.618Z,22.15
2022-08-17T23:37:04.189Z,22.14
2022-08-17T23:39:32.151Z,22.13
2022-08-17T23:42:03.211Z,22.11
2022-08-17T23:44:31.287Z,22.09
2022-08-17T23:46:58.772Z,22.06
2022-08-17T23:49:26.351Z,22.04
2022-08-17T23:51:55.304Z,22.02
2022-08-17T23:54:38.529Z,22.01
2022-08-17T23:57:06.129Z,21.99
2022-08-17T23:59:33.691Z,21.97
